SNOW

Not for real navigation. The accuracy of this data is not assured See disclaimer for more information

No stations matching search criteria

ICAO NAME COUNTRY WIND Kt GUST Kt VIS m TEMP/DEW C BARO METAR
YMLT Launceston Airport Australia 4 0 100 4/4 30.15 YMLT 161330Z AUTO 35004KT 0100 -SHSN OVC001 04/04 Q1021
CYRB Resolute, N. W. T. Canada 7 0 400 0/0 29.89 CYRB 161300Z 17007KT 0.25SM R35/1200FT/N -SN FZFG VV002 M00/M00 A2989 RMK FG8 SLP129
CYCY Clyde, N. W. T. Canada 5 0 9999 4/2 30.25 CYCY 161300Z 10005KT 25SM CAVOK 04/02 A3025 RMK SF TR AC TR CI TR/R00 AFT 22UTC/0 SNW CVR SLP247